Terminal Aerodrome Forecast
Issued by NWS Sterling, VA

Home | Current Version | Previous Version | Text Only | Print | Product List | Glossary On
Versions: 1 2 3 4 5 6 7 8 9 10 11 12 13
000
FTUS41 KLWX 222320
TAFMRB
TAF
KMRB 222320Z 2300/2324 16007KT P6SM SCT100 OVC200
     FM230400 16007KT P6SM VCSH SCT025 OVC050 WS020/20040KT
     FM230700 15008KT 2SM -SHRA BR SCT008 BKN015 OVC050
      WS020/20045KT
     FM231200 21009KT 3SM -SHRA SCT008 BKN015 OVC050 WS020/20045KT
     FM231400 25010G18KT P6SM SCT025 BKN050
     FM231700 26015G25KT P6SM SCT050=

USA.gov is the U.S. government's official web portal to all federal, state and local government web resources and services.